createdAt,value
2017-05-24T00:00:01.914Z,4.33
2017-05-24T00:02:30.243Z,4.67
2017-05-24T00:04:58.604Z,4.47
2017-05-24T00:07:27.217Z,4.40
2017-05-24T00:18:36.181Z,4.90
2017-05-24T00:21:04.516Z,4.10
2017-05-24T00:23:32.840Z,4.35
2017-05-24T00:26:01.473Z,3.83
2017-05-24T00:28:29.788Z,3.97
2017-05-24T00:30:58.111Z,5.13
2017-05-24T00:33:26.604Z,4.75
2017-05-24T00:35:54.924Z,4.42
2017-05-24T00:38:23.259Z,4.33
2017-05-24T00:40:51.764Z,4.42
2017-05-24T00:43:20.111Z,5.03
2017-05-24T00:45:48.436Z,6.20
2017-05-24T00:48:16.791Z,5.37
2017-05-24T00:50:45.113Z,4.22
2017-05-24T00:53:13.436Z,4.75
2017-05-24T00:55:41.805Z,4.53
2017-05-24T00:58:10.135Z,4.92
2017-05-24T01:00:38.463Z,5.10
2017-05-24T01:03:06.933Z,4.03
2017-05-24T01:05:35.256Z,4.60
2017-05-24T01:08:03.587Z,5.25
2017-05-24T01:10:32.043Z,5.15
2017-05-24T01:13:00.375Z,4.93
2017-05-24T01:15:28.705Z,4.25
2017-05-24T01:17:57.101Z,4.97
2017-05-24T01:20:25.455Z,4.92
2017-05-24T01:22:53.815Z,5.97
2017-05-24T01:25:22.215Z,5.03
2017-05-24T01:27:50.545Z,3.93
2017-05-24T01:30:18.863Z,4.90
2017-05-24T01:32:47.239Z,5.65
2017-05-24T01:35:15.575Z,5.30
2017-05-24T01:37:43.904Z,4.75
2017-05-24T01:40:12.301Z,4.82
2017-05-24T01:42:40.634Z,4.23
2017-05-24T01:45:08.973Z,4.70
2017-05-24T01:47:37.374Z,4.55
2017-05-24T01:50:05.707Z,4.73
2017-05-24T01:52:34.044Z,4.53
2017-05-24T01:55:02.583Z,4.12
2017-05-24T01:57:30.916Z,4.97
2017-05-24T01:59:59.237Z,4.37
2017-05-24T02:02:27.848Z,4.35
2017-05-24T02:04:56.181Z,4.80
2017-05-24T02:07:24.549Z,4.00
2017-05-24T02:09:53.362Z,5.30
2017-05-24T02:12:21.733Z,3.97
2017-05-24T02:14:50.058Z,4.62
2017-05-24T02:17:18.603Z,4.67
2017-05-24T02:19:46.932Z,4.52
2017-05-24T02:22:15.264Z,5.30
2017-05-24T02:24:43.833Z,4.45
2017-05-24T02:27:12.164Z,4.70
2017-05-24T02:29:40.495Z,6.45
2017-05-24T02:32:08.393Z,4.43
2017-05-24T02:34:36.719Z,5.47
2017-05-24T02:37:05.069Z,4.13
2017-05-24T02:39:33.591Z,4.90
2017-05-24T02:42:01.947Z,5.50
2017-05-24T02:44:30.275Z,4.92
2017-05-24T02:46:58.839Z,4.75
2017-05-24T02:49:27.183Z,5.23
2017-05-24T02:51:55.520Z,4.90
2017-05-24T02:54:24.933Z,4.65
2017-05-24T02:56:53.274Z,5.68
2017-05-24T02:59:21.616Z,4.87
2017-05-24T03:01:49.975Z,4.42
2017-05-24T03:04:18.305Z,3.82
2017-05-24T03:06:45.859Z,5.58
2017-05-24T03:09:14.236Z,5.28
2017-05-24T03:11:42.583Z,6.62
2017-05-24T03:14:10.911Z,4.62
2017-05-24T03:16:39.272Z,4.47
2017-05-24T03:19:07.599Z,4.17
2017-05-24T03:21:35.162Z,5.17
2017-05-24T03:24:03.636Z,3.83
2017-05-24T03:26:31.955Z,4.15
2017-05-24T03:29:00.271Z,3.93
2017-05-24T03:31:28.671Z,4.32
2017-05-24T03:33:56.991Z,3.93
2017-05-24T03:36:25.353Z,4.02
2017-05-24T03:38:53.716Z,5.13
2017-05-24T03:41:22.072Z,5.72
2017-05-24T03:43:50.395Z,5.53
2017-05-24T03:46:19.084Z,5.30
2017-05-24T03:48:47.500Z,4.63
2017-05-24T03:51:15.071Z,4.28
2017-05-24T03:53:43.469Z,4.73
2017-05-24T03:56:11.799Z,3.88
2017-05-24T03:58:40.135Z,4.70
2017-05-24T04:01:08.732Z,4.18
2017-05-24T04:03:37.086Z,3.35
2017-05-24T04:06:05.421Z,4.07
2017-05-24T04:08:34.175Z,5.00
2017-05-24T04:11:02.517Z,4.03
2017-05-24T04:13:30.845Z,4.12
2017-05-24T04:15:58.587Z,3.22
2017-05-24T04:18:26.942Z,3.50
2017-05-24T04:20:55.284Z,3.67
2017-05-24T04:23:23.664Z,3.97
2017-05-24T04:25:51.997Z,4.20
2017-05-24T04:28:20.324Z,4.07
2017-05-24T04:30:48.879Z,2.92
2017-05-24T04:33:17.198Z,4.22
2017-05-24T04:35:45.529Z,3.08
2017-05-24T04:38:14.225Z,4.47
2017-05-24T04:40:42.559Z,3.98
2017-05-24T04:43:10.889Z,3.63
2017-05-24T04:45:39.448Z,2.62
2017-05-24T04:48:07.773Z,3.35
2017-05-24T04:50:36.097Z,3.58
2017-05-24T04:53:04.675Z,4.55
2017-05-24T04:55:33.009Z,4.47
2017-05-24T04:58:01.353Z,3.10
2017-05-24T05:00:29.878Z,3.93
2017-05-24T05:02:58.249Z,3.97
2017-05-24T05:05:28.466Z,3.35
2017-05-24T05:07:56.829Z,2.83
2017-05-24T05:10:25.155Z,4.60
2017-05-24T05:12:53.482Z,3.85
2017-05-24T05:15:21.941Z,2.95
2017-05-24T05:17:50.331Z,3.13
2017-05-24T05:20:18.682Z,3.85
2017-05-24T05:22:47.040Z,3.57
2017-05-24T05:25:15.382Z,3.03
2017-05-24T05:27:43.704Z,3.10
2017-05-24T05:30:12.152Z,3.03
2017-05-24T05:32:40.491Z,3.37
2017-05-24T05:35:08.817Z,3.33
2017-05-24T05:37:37.435Z,3.38
2017-05-24T05:40:05.752Z,3.15
2017-05-24T05:42:34.805Z,2.52
2017-05-24T05:45:03.227Z,4.27
2017-05-24T05:47:31.560Z,3.98
2017-05-24T05:49:59.893Z,2.55
2017-05-24T05:52:28.280Z,2.57
2017-05-24T05:54:56.630Z,3.00
2017-05-24T05:57:24.979Z,3.30
2017-05-24T05:59:52.575Z,2.82
2017-05-24T06:02:20.901Z,4.53
2017-05-24T06:04:49.244Z,2.93
2017-05-24T06:07:17.981Z,3.33
2017-05-24T06:09:46.309Z,2.85
2017-05-24T06:12:14.634Z,2.83
2017-05-24T06:14:43.415Z,2.37
2017-05-24T06:17:11.748Z,2.57
2017-05-24T06:19:40.087Z,3.53
2017-05-24T06:22:08.858Z,3.15
2017-05-24T06:24:37.198Z,3.37
2017-05-24T06:27:05.825Z,3.07
2017-05-24T06:29:34.280Z,3.38
2017-05-24T06:32:01.840Z,3.38
2017-05-24T06:34:30.172Z,3.55
2017-05-24T06:36:58.722Z,2.63
2017-05-24T06:39:27.044Z,4.18
2017-05-24T06:41:55.380Z,3.47
2017-05-24T06:44:24.165Z,3.37
2017-05-24T06:46:52.487Z,2.85
2017-05-24T06:49:20.816Z,3.18
2017-05-24T06:51:49.405Z,2.72
2017-05-24T06:54:17.865Z,2.60
2017-05-24T06:56:46.193Z,2.22
2017-05-24T06:59:14.720Z,3.47
2017-05-24T07:01:43.051Z,2.78
2017-05-24T07:04:11.376Z,3.80
2017-05-24T07:06:39.847Z,2.58
2017-05-24T07:09:08.213Z,3.08
2017-05-24T07:11:36.547Z,2.60
2017-05-24T07:14:04.953Z,3.88
2017-05-24T07:16:33.282Z,2.22
2017-05-24T07:19:01.620Z,1.68
2017-05-24T07:21:29.425Z,3.48
2017-05-24T07:23:57.758Z,2.75
2017-05-24T07:26:26.103Z,3.27
2017-05-24T07:28:54.669Z,3.03
2017-05-24T07:31:23.003Z,2.40
2017-05-24T07:33:51.370Z,2.70
2017-05-24T07:36:19.825Z,1.85
2017-05-24T07:38:48.158Z,2.80
2017-05-24T07:41:16.489Z,2.42
2017-05-24T07:43:45.752Z,2.72
2017-05-24T07:46:14.075Z,2.73
2017-05-24T07:48:42.396Z,2.80
2017-05-24T07:51:10.905Z,2.02
2017-05-24T07:53:39.257Z,2.15
2017-05-24T07:56:06.818Z,2.12
2017-05-24T07:58:35.274Z,2.22
2017-05-24T08:01:03.595Z,2.48
2017-05-24T08:03:31.923Z,1.73
2017-05-24T08:06:00.512Z,2.05
2017-05-24T08:08:28.839Z,1.98
2017-05-24T08:10:57.171Z,2.02
2017-05-24T08:13:25.628Z,1.97
2017-05-24T08:15:53.963Z,2.22
2017-05-24T08:18:22.287Z,3.07
2017-05-24T08:20:50.932Z,2.40
2017-05-24T08:23:19.273Z,3.03
2017-05-24T08:25:47.625Z,2.22
2017-05-24T08:28:16.168Z,1.95
2017-05-24T08:30:43.787Z,2.42
2017-05-24T08:33:12.144Z,2.18
2017-05-24T08:35:40.781Z,1.98
2017-05-24T08:38:09.116Z,2.90
2017-05-24T08:40:37.435Z,2.13
2017-05-24T08:43:06.021Z,2.45
2017-05-24T08:45:34.352Z,3.17
2017-05-24T08:48:02.688Z,2.38
2017-05-24T08:50:31.252Z,2.70
2017-05-24T08:52:59.593Z,2.20
2017-05-24T08:55:27.936Z,1.83
2017-05-24T08:57:56.417Z,1.77
2017-05-24T09:00:24.743Z,2.20
2017-05-24T09:02:53.077Z,1.80
2017-05-24T09:05:21.545Z,1.73
2017-05-24T09:07:49.884Z,3.03
2017-05-24T09:10:18.221Z,2.08
2017-05-24T09:12:46.856Z,2.30
2017-05-24T09:15:15.196Z,1.95
2017-05-24T09:17:44.337Z,2.22
2017-05-24T09:20:12.840Z,2.42
2017-05-24T09:22:41.179Z,2.50
2017-05-24T09:25:09.537Z,2.72
2017-05-24T09:27:38.061Z,2.33
2017-05-24T09:30:06.443Z,2.40
2017-05-24T09:32:34.784Z,2.50
2017-05-24T09:35:03.254Z,2.55
2017-05-24T09:37:31.575Z,3.53
2017-05-24T09:39:59.910Z,2.28
2017-05-24T09:42:28.636Z,2.82
2017-05-24T09:44:57.114Z,2.65
2017-05-24T09:47:25.439Z,2.60
2017-05-24T09:49:53.989Z,3.73
2017-05-24T09:52:22.325Z,2.43
2017-05-24T09:54:50.844Z,2.70
2017-05-24T09:57:19.456Z,2.77
2017-05-24T09:59:48.590Z,2.55
2017-05-24T10:02:16.913Z,2.87
2017-05-24T10:04:45.490Z,2.17
2017-05-24T10:07:14.027Z,2.65
2017-05-24T10:09:42.383Z,1.85
2017-05-24T10:12:10.752Z,1.52
2017-05-24T10:14:39.072Z,2.57
2017-05-24T10:17:08.086Z,2.05
2017-05-24T10:19:36.439Z,1.67
2017-05-24T10:22:04.779Z,2.30
2017-05-24T10:24:33.178Z,1.90
2017-05-24T10:27:01.766Z,2.65
2017-05-24T10:29:30.093Z,2.00
2017-05-24T10:31:58.429Z,2.30
2017-05-24T10:34:27.135Z,2.13
2017-05-24T10:36:55.459Z,2.47
2017-05-24T10:39:23.785Z,2.37
2017-05-24T10:42:09.260Z,2.37
2017-05-24T10:44:38.621Z,2.08
2017-05-24T10:47:06.952Z,3.42
2017-05-24T10:49:35.328Z,1.95
2017-05-24T10:52:03.655Z,2.55
2017-05-24T10:54:31.211Z,2.22
2017-05-24T10:56:59.743Z,2.40
2017-05-24T10:59:28.076Z,2.83
2017-05-24T11:01:56.395Z,2.08
2017-05-24T11:04:24.956Z,2.50
2017-05-24T11:06:53.290Z,1.65
2017-05-24T11:09:21.604Z,2.23
2017-05-24T11:11:49.980Z,1.52
2017-05-24T11:14:18.353Z,1.67
2017-05-24T11:16:46.935Z,2.63
2017-05-24T11:19:15.650Z,2.37
2017-05-24T11:21:43.973Z,2.95
2017-05-24T11:24:12.295Z,2.37
2017-05-24T11:26:40.891Z,1.95
2017-05-24T11:29:09.213Z,2.37
2017-05-24T11:31:37.564Z,2.38
2017-05-24T11:34:05.970Z,2.13
2017-05-24T11:36:34.287Z,1.92
2017-05-24T11:39:02.611Z,2.25
2017-05-24T11:41:31.273Z,2.25
2017-05-24T11:43:59.604Z,2.70
2017-05-24T11:46:27.929Z,2.58
2017-05-24T11:48:55.558Z,2.70
2017-05-24T11:51:23.875Z,2.88
2017-05-24T11:53:52.206Z,2.30
2017-05-24T11:56:20.824Z,2.42
2017-05-24T11:58:49.158Z,2.12
2017-05-24T12:01:17.507Z,1.93
2017-05-24T12:03:45.970Z,2.10
2017-05-24T12:06:14.413Z,2.60
2017-05-24T12:08:43.192Z,2.72
2017-05-24T12:11:12.011Z,1.70
2017-05-24T12:13:40.808Z,2.12
2017-05-24T12:16:09.137Z,2.35
2017-05-24T12:18:37.523Z,1.52
2017-05-24T12:21:05.858Z,1.78
2017-05-24T12:23:34.184Z,1.97
2017-05-24T12:26:02.907Z,1.75
2017-05-24T12:28:31.229Z,1.98
2017-05-24T12:30:59.564Z,2.62
2017-05-24T12:33:28.799Z,2.50
2017-05-24T12:35:57.120Z,2.10
2017-05-24T12:38:25.444Z,2.90
2017-05-24T12:40:54.184Z,2.18
2017-05-24T12:43:22.520Z,2.08
2017-05-24T12:45:50.860Z,2.07
2017-05-24T12:48:19.233Z,2.00
2017-05-24T12:50:47.566Z,3.02
2017-05-24T12:53:16.054Z,2.53
2017-05-24T12:55:44.565Z,3.13
2017-05-24T12:58:12.884Z,2.53
2017-05-24T13:00:41.273Z,2.95
2017-05-24T13:03:10.166Z,3.15
2017-05-24T13:05:38.508Z,2.82
2017-05-24T13:08:06.835Z,2.50
2017-05-24T13:10:35.288Z,3.13
2017-05-24T13:13:03.632Z,2.32
2017-05-24T13:15:31.960Z,2.88
2017-05-24T13:18:00.416Z,2.90
2017-05-24T13:20:28.834Z,2.52
2017-05-24T13:22:57.173Z,2.32
2017-05-24T13:25:25.636Z,2.80
2017-05-24T13:27:53.960Z,3.02
2017-05-24T13:30:22.576Z,2.65
2017-05-24T13:32:51.165Z,2.12
2017-05-24T13:35:19.500Z,2.23
2017-05-24T13:37:47.828Z,3.08
2017-05-24T13:40:16.260Z,3.45
2017-05-24T13:42:44.599Z,2.57
2017-05-24T13:45:12.920Z,3.22
2017-05-24T13:47:42.453Z,3.43
2017-05-24T13:50:10.772Z,2.13
2017-05-24T13:52:39.096Z,3.03
2017-05-24T13:55:07.687Z,2.70
2017-05-24T13:57:36.023Z,2.95
2017-05-24T14:00:04.355Z,2.65
2017-05-24T14:02:32.885Z,2.43
2017-05-24T14:05:01.218Z,2.25
2017-05-24T14:07:30.359Z,2.70
2017-05-24T14:09:58.888Z,2.52
2017-05-24T14:12:27.216Z,2.25
2017-05-24T14:14:55.540Z,3.15
2017-05-24T14:17:24.124Z,3.00
2017-05-24T14:19:52.468Z,2.82
2017-05-24T14:22:20.804Z,2.58
2017-05-24T14:24:49.463Z,2.80
2017-05-24T14:27:17.796Z,2.90
2017-05-24T14:29:46.129Z,2.58
2017-05-24T14:32:14.699Z,2.97
2017-05-24T14:34:43.024Z,3.20
2017-05-24T14:37:11.521Z,3.68
2017-05-24T14:39:40.247Z,2.30
2017-05-24T14:42:08.583Z,2.98
2017-05-24T14:44:36.901Z,3.23
2017-05-24T14:47:05.477Z,2.97
2017-05-24T14:49:33.820Z,2.53
2017-05-24T14:52:02.168Z,2.70
2017-05-24T14:54:30.239Z,2.82
2017-05-24T14:56:58.563Z,2.30
2017-05-24T14:59:26.879Z,2.78
2017-05-24T15:01:55.786Z,2.63
2017-05-24T15:04:24.137Z,3.03
2017-05-24T15:06:52.469Z,2.53
2017-05-24T15:09:20.869Z,2.82
2017-05-24T15:11:48.447Z,2.70
2017-05-24T15:14:16.786Z,2.65
2017-05-24T15:16:45.151Z,2.70
2017-05-24T15:19:13.485Z,2.48
2017-05-24T15:21:42.076Z,2.27
2017-05-24T15:24:10.627Z,3.13
2017-05-24T15:26:38.949Z,3.00
2017-05-24T15:29:07.540Z,2.65
2017-05-24T15:31:37.011Z,2.85
2017-05-24T15:34:05.365Z,2.92
2017-05-24T15:36:33.691Z,2.65
2017-05-24T15:39:02.346Z,2.83
2017-05-24T15:41:29.916Z,2.52
2017-05-24T15:43:58.255Z,2.38
2017-05-24T15:46:26.632Z,3.15
2017-05-24T15:48:54.964Z,2.50
2017-05-24T15:51:23.313Z,2.37
2017-05-24T15:53:51.899Z,2.47
2017-05-24T15:56:20.240Z,3.08
2017-05-24T15:58:49.384Z,2.72
2017-05-24T16:01:18.037Z,3.30
2017-05-24T16:03:45.624Z,2.30
2017-05-24T16:06:13.983Z,2.12
2017-05-24T16:08:42.556Z,2.73
2017-05-24T16:11:10.949Z,2.43
2017-05-24T16:13:39.279Z,2.75
2017-05-24T16:16:07.643Z,2.02
2017-05-24T16:18:35.991Z,2.65
2017-05-24T16:21:04.478Z,2.80
2017-05-24T16:23:33.163Z,2.42
2017-05-24T16:26:01.500Z,2.18
2017-05-24T16:28:29.857Z,2.65
2017-05-24T16:30:58.264Z,2.40
2017-05-24T16:33:26.612Z,2.77
2017-05-24T16:35:54.944Z,1.90
2017-05-24T16:38:23.632Z,2.73
2017-05-24T16:40:51.979Z,1.92
2017-05-24T16:43:20.365Z,2.23
2017-05-24T16:45:48.933Z,2.77
2017-05-24T16:48:17.313Z,1.98
2017-05-24T16:50:45.640Z,2.00
2017-05-24T16:53:14.309Z,2.87
2017-05-24T16:55:42.644Z,2.80
2017-05-24T16:58:10.972Z,2.07
2017-05-24T17:00:39.408Z,2.37
2017-05-24T17:03:07.760Z,2.32
2017-05-24T17:05:36.103Z,3.55
2017-05-24T17:08:04.821Z,3.53
2017-05-24T17:10:33.172Z,2.67
2017-05-24T17:13:01.500Z,2.58
2017-05-24T17:15:30.011Z,2.80
2017-05-24T17:17:58.392Z,2.83
2017-05-24T17:20:32.068Z,3.25
2017-05-24T17:23:00.399Z,2.38
2017-05-24T17:25:28.859Z,3.30
2017-05-24T17:27:57.649Z,3.12
2017-05-24T17:30:25.989Z,2.67
2017-05-24T17:32:53.576Z,3.05
2017-05-24T17:35:22.289Z,2.43
2017-05-24T17:37:50.615Z,2.57
2017-05-24T17:40:18.941Z,2.92
2017-05-24T17:42:47.372Z,3.87
2017-05-24T17:45:15.730Z,2.40
2017-05-24T17:47:44.088Z,2.22
2017-05-24T17:50:12.852Z,3.12
2017-05-24T17:52:42.228Z,2.33
2017-05-24T17:55:10.796Z,1.97
2017-05-24T17:57:39.165Z,2.40
2017-05-24T18:00:07.516Z,2.00
2017-05-24T18:02:39.324Z,3.00
2017-05-24T18:05:07.983Z,2.47
2017-05-24T18:07:36.425Z,2.53
2017-05-24T18:10:04.780Z,3.18
2017-05-24T18:12:33.298Z,2.92
2017-05-24T18:15:01.168Z,3.02
2017-05-24T18:17:29.508Z,2.88
2017-05-24T18:19:57.158Z,2.88
2017-05-24T18:22:25.741Z,3.33
2017-05-24T18:24:54.086Z,2.70
2017-05-24T18:27:22.605Z,3.30
2017-05-24T18:29:50.941Z,4.40
2017-05-24T18:32:19.287Z,3.18
2017-05-24T18:34:48.097Z,3.90
2017-05-24T18:37:16.490Z,3.28
2017-05-24T18:39:45.041Z,3.78
2017-05-24T18:42:12.666Z,4.63
2017-05-24T18:44:41.089Z,3.47
2017-05-24T18:47:09.459Z,4.40
2017-05-24T18:49:37.378Z,4.25
2017-05-24T18:52:05.765Z,3.75
2017-05-24T18:54:34.476Z,4.45
2017-05-24T18:57:02.962Z,4.30
2017-05-24T18:59:31.303Z,3.85
2017-05-24T19:01:59.632Z,5.17
2017-05-24T19:04:28.596Z,5.48
2017-05-24T19:06:57.021Z,6.28
2017-05-24T19:09:25.585Z,5.35
2017-05-24T19:11:53.967Z,5.87
2017-05-24T19:14:22.476Z,5.12
2017-05-24T19:16:50.836Z,4.92
2017-05-24T19:19:19.364Z,4.48
2017-05-24T19:21:47.776Z,6.58
2017-05-24T19:24:15.647Z,6.28
2017-05-24T19:26:44.166Z,6.50
2017-05-24T19:29:12.513Z,6.73
2017-05-24T19:31:40.934Z,6.12
2017-05-24T19:34:09.684Z,6.83
2017-05-24T19:36:38.105Z,6.15
2017-05-24T19:39:06.448Z,5.97
2017-05-24T19:41:34.979Z,7.68
2017-05-24T19:44:03.395Z,6.42
2017-05-24T19:46:31.729Z,6.12
2017-05-24T19:49:00.281Z,6.55
2017-05-24T19:51:28.639Z,7.25
2017-05-24T19:53:56.464Z,6.17
2017-05-24T19:56:24.300Z,7.45
2017-05-24T19:58:52.658Z,7.82
2017-05-24T20:01:21.262Z,7.55
2017-05-24T20:03:49.626Z,8.12
2017-05-24T20:06:17.984Z,7.68
2017-05-24T20:08:46.320Z,6.92
2017-05-24T20:11:15.025Z,8.90
2017-05-24T20:13:43.454Z,8.25
2017-05-24T20:16:11.153Z,8.32
2017-05-24T20:18:39.576Z,7.55
2017-05-24T20:21:07.912Z,7.57
2017-05-24T20:23:35.485Z,7.52
2017-05-24T20:26:04.100Z,8.20
2017-05-24T20:28:32.439Z,9.33
2017-05-24T20:31:00.803Z,10.43
2017-05-24T20:33:29.196Z,8.55
2017-05-24T20:35:57.532Z,11.30
2017-05-24T20:38:25.863Z,8.83
2017-05-24T20:40:54.269Z,11.12
2017-05-24T20:43:22.626Z,11.58
2017-05-24T20:45:50.956Z,9.93
2017-05-24T20:48:19.667Z,10.82
2017-05-24T20:50:48.007Z,10.53
2017-05-24T20:53:15.577Z,11.65
2017-05-24T20:55:43.188Z,10.02
2017-05-24T20:58:11.519Z,11.05
2017-05-24T21:00:39.852Z,10.12
2017-05-24T21:03:08.241Z,10.33
2017-05-24T21:05:36.618Z,9.23
2017-05-24T21:08:04.960Z,10.83
2017-05-24T21:10:33.764Z,10.80
2017-05-24T21:13:02.124Z,9.63
2017-05-24T21:15:30.451Z,9.50
2017-05-24T21:17:59.137Z,9.85
2017-05-24T21:20:27.491Z,9.27
2017-05-24T21:22:55.892Z,8.93
2017-05-24T21:25:24.302Z,9.85
2017-05-24T21:27:52.643Z,8.57
2017-05-24T21:30:20.984Z,10.75
2017-05-24T21:32:49.378Z,9.32
2017-05-24T21:35:17.724Z,9.88
2017-05-24T21:37:46.069Z,10.53
2017-05-24T21:40:14.619Z,10.45
2017-05-24T21:42:42.981Z,11.10
2017-05-24T21:45:11.309Z,9.58
2017-05-24T21:47:39.820Z,10.02
2017-05-24T21:50:08.207Z,10.97
2017-05-24T21:52:36.544Z,12.07
2017-05-24T21:55:04.312Z,11.65
2017-05-24T21:57:32.660Z,12.20
2017-05-24T22:00:01.039Z,12.53
2017-05-24T22:02:29.564Z,12.18
2017-05-24T22:04:57.904Z,12.72
2017-05-24T22:07:26.232Z,12.60
2017-05-24T22:09:55.094Z,13.82
2017-05-24T22:12:23.452Z,12.13
2017-05-24T22:14:51.784Z,12.43
2017-05-24T22:17:20.147Z,14.88
2017-05-24T22:19:48.496Z,14.75
2017-05-24T22:22:16.865Z,14.25
2017-05-24T22:24:45.325Z,16.68
2017-05-24T22:27:13.672Z,14.07
2017-05-24T22:29:42.009Z,16.07
2017-05-24T22:32:10.466Z,14.70
2017-05-24T22:34:38.803Z,14.27
2017-05-24T22:37:07.640Z,15.70
2017-05-24T22:39:36.037Z,15.68
2017-05-24T22:42:04.431Z,16.95
2017-05-24T22:44:32.772Z,16.52
2017-05-24T22:47:01.173Z,16.62
2017-05-24T22:49:29.541Z,16.28
2017-05-24T22:51:57.883Z,16.98
2017-05-24T22:54:26.357Z,18.20
2017-05-24T22:56:54.741Z,17.37
2017-05-24T22:59:23.140Z,18.62
2017-05-24T23:01:51.591Z,17.85
2017-05-24T23:04:19.933Z,16.90
2017-05-24T23:06:47.512Z,17.40
2017-05-24T23:09:16.327Z,16.98
2017-05-24T23:11:44.703Z,17.28
2017-05-24T23:14:13.048Z,19.08
2017-05-24T23:16:41.504Z,20.07
2017-05-24T23:19:09.842Z,18.65
2017-05-24T23:21:38.172Z,19.33
2017-05-24T23:24:06.572Z,21.03
2017-05-24T23:26:34.140Z,19.87
2017-05-24T23:29:02.478Z,19.50
2017-05-24T23:31:30.885Z,18.75
2017-05-24T23:33:59.232Z,18.03
2017-05-24T23:36:27.560Z,20.08
2017-05-24T23:38:56.044Z,20.40
2017-05-24T23:41:24.395Z,18.18
2017-05-24T23:43:52.725Z,22.35
2017-05-24T23:46:21.246Z,22.13
2017-05-24T23:48:49.584Z,22.10
2017-05-24T23:51:17.924Z,22.65
2017-05-24T23:53:45.763Z,22.50
2017-05-24T23:56:14.107Z,20.52
2017-05-24T23:58:42.464Z,19.93
